sensor_id;sensor_type;location;lat;lon;timestamp;P1;durP1;ratioP1;P2;durP2;ratioP2
70132;SDS011;57495;49.922;7.966;2024-03-23T00:53:57;20.73;;;10.68;;
70132;SDS011;57495;49.922;7.966;2024-03-23T00:55:58;18.63;;;10.32;;
70132;SDS011;57495;49.922;7.966;2024-03-23T00:57:59;19.42;;;10.10;;
70132;SDS011;57495;49.922;7.966;2024-03-23T01:00:00;19.13;;;10.82;;
70132;SDS011;57495;49.922;7.966;2024-03-23T01:02:01;19.15;;;10.60;;
70132;SDS011;57495;49.922;7.966;2024-03-23T01:04:02;23.20;;;11.10;;
70132;SDS011;57495;49.922;7.966;2024-03-23T01:06:04;23.63;;;11.50;;
70132;SDS011;57495;49.922;7.966;2024-03-23T01:08:04;22.83;;;10.77;;
70132;SDS011;57495;49.922;7.966;2024-03-23T01:10:08;22.30;;;10.93;;
70132;SDS011;57495;49.922;7.966;2024-03-23T01:12:09;21.05;;;9.77;;
70132;SDS011;57495;49.922;7.966;2024-03-23T01:14:10;18.30;;;10.02;;
70132;SDS011;57495;49.922;7.966;2024-03-23T01:16:11;25.33;;;12.27;;
70132;SDS011;57495;49.922;7.966;2024-03-23T01:18:12;18.75;;;10.30;;
70132;SDS011;57495;49.922;7.966;2024-03-23T01:20:13;20.57;;;10.33;;
70132;SDS011;57495;49.922;7.966;2024-03-23T01:22:14;18.08;;;10.05;;
70132;SDS011;57495;49.922;7.966;2024-03-23T01:24:15;20.95;;;9.90;;
70132;SDS011;57495;49.922;7.966;2024-03-23T01:26:18;21.60;;;11.13;;
70132;SDS011;57495;49.922;7.966;2024-03-23T01:28:18;21.67;;;12.05;;
70132;SDS011;57495;49.922;7.966;2024-03-23T01:30:20;21.17;;;11.05;;
70132;SDS011;57495;49.922;7.966;2024-03-23T01:32:20;20.53;;;11.23;;
70132;SDS011;57495;49.922;7.966;2024-03-23T01:34:21;19.63;;;10.50;;
70132;SDS011;57495;49.922;7.966;2024-03-23T01:36:22;20.70;;;10.90;;
70132;SDS011;57495;49.922;7.966;2024-03-23T01:38:23;21.45;;;10.77;;
70132;SDS011;57495;49.922;7.966;2024-03-23T01:40:24;20.30;;;10.93;;
70132;SDS011;57495;49.922;7.966;2024-03-23T01:42:28;20.75;;;10.85;;
70132;SDS011;57495;49.922;7.966;2024-03-23T01:44:29;22.83;;;11.05;;
70132;SDS011;57495;49.922;7.966;2024-03-23T01:46:30;22.55;;;11.55;;
70132;SDS011;57495;49.922;7.966;2024-03-23T01:48:33;25.55;;;11.32;;
70132;SDS011;57495;49.922;7.966;2024-03-23T01:50:35;21.63;;;10.60;;
70132;SDS011;57495;49.922;7.966;2024-03-23T01:52:35;23.10;;;11.55;;
70132;SDS011;57495;49.922;7.966;2024-03-23T01:54:37;23.55;;;11.60;;
70132;SDS011;57495;49.922;7.966;2024-03-23T01:56:38;22.95;;;11.73;;
70132;SDS011;57495;49.922;7.966;2024-03-23T01:58:41;21.02;;;11.48;;
70132;SDS011;57495;49.922;7.966;2024-03-23T02:00:41;21.48;;;11.60;;
70132;SDS011;57495;49.922;7.966;2024-03-23T02:02:43;21.38;;;11.18;;
70132;SDS011;57495;49.922;7.966;2024-03-23T02:04:44;21.45;;;11.15;;
70132;SDS011;57495;49.922;7.966;2024-03-23T02:06:45;20.15;;;10.77;;
70132;SDS011;57495;49.922;7.966;2024-03-23T02:08:46;24.37;;;12.97;;
70132;SDS011;57495;49.922;7.966;2024-03-23T02:10:47;21.42;;;11.63;;
70132;SDS011;57495;49.922;7.966;2024-03-23T02:12:48;22.03;;;12.43;;
70132;SDS011;57495;49.922;7.966;2024-03-23T02:14:50;22.52;;;10.82;;
70132;SDS011;57495;49.922;7.966;2024-03-23T02:16:51;23.60;;;12.40;;
70132;SDS011;57495;49.922;7.966;2024-03-23T02:18:52;17.23;;;8.85;;
70132;SDS011;57495;49.922;7.966;2024-03-23T02:20:53;16.87;;;9.30;;
70132;SDS011;57495;49.922;7.966;2024-03-23T02:22:55;22.60;;;9.43;;
70132;SDS011;57495;49.922;7.966;2024-03-23T02:24:56;17.05;;;9.18;;
70132;SDS011;57495;49.922;7.966;2024-03-23T02:26:56;15.37;;;8.53;;
70132;SDS011;57495;49.922;7.966;2024-03-23T02:28:58;16.02;;;8.88;;
70132;SDS011;57495;49.922;7.966;2024-03-23T02:30:58;16.87;;;8.90;;
70132;SDS011;57495;49.922;7.966;2024-03-23T02:33:01;14.10;;;7.80;;
70132;SDS011;57495;49.922;7.966;2024-03-23T02:35:01;11.80;;;7.30;;
70132;SDS011;57495;49.922;7.966;2024-03-23T02:37:07;13.00;;;7.43;;
70132;SDS011;57495;49.922;7.966;2024-03-23T02:39:12;11.68;;;6.75;;
70132;SDS011;57495;49.922;7.966;2024-03-23T02:41:13;11.73;;;5.90;;
70132;SDS011;57495;49.922;7.966;2024-03-23T02:43:13;9.43;;;5.93;;
70132;SDS011;57495;49.922;7.966;2024-03-23T02:45:15;11.93;;;6.10;;
70132;SDS011;57495;49.922;7.966;2024-03-23T02:47:15;11.02;;;5.90;;
70132;SDS011;57495;49.922;7.966;2024-03-23T02:49:17;11.57;;;6.50;;
70132;SDS011;57495;49.922;7.966;2024-03-23T02:51:18;11.97;;;6.30;;
70132;SDS011;57495;49.922;7.966;2024-03-23T02:53:19;9.95;;;5.78;;
70132;SDS011;57495;49.922;7.966;2024-03-23T02:55:21;10.02;;;5.95;;
70132;SDS011;57495;49.922;7.966;2024-03-23T02:57:22;15.75;;;6.47;;
70132;SDS011;57495;49.922;7.966;2024-03-23T02:59:24;11.32;;;6.85;;
70132;SDS011;57495;49.922;7.966;2024-03-23T03:01:24;11.17;;;6.13;;
70132;SDS011;57495;49.922;7.966;2024-03-23T03:03:26;10.65;;;6.80;;
70132;SDS011;57495;49.922;7.966;2024-03-23T03:05:26;10.57;;;6.43;;
70132;SDS011;57495;49.922;7.966;2024-03-23T03:07:28;11.50;;;6.47;;
70132;SDS011;57495;49.922;7.966;2024-03-23T03:09:28;11.57;;;7.17;;
70132;SDS011;57495;49.922;7.966;2024-03-23T03:11:31;13.20;;;7.38;;
70132;SDS011;57495;49.922;7.966;2024-03-23T03:13:31;12.05;;;7.00;;
70132;SDS011;57495;49.922;7.966;2024-03-23T03:15:33;12.38;;;6.60;;
70132;SDS011;57495;49.922;7.966;2024-03-23T03:17:33;11.97;;;7.27;;
70132;SDS011;57495;49.922;7.966;2024-03-23T03:19:35;15.80;;;8.48;;
70132;SDS011;57495;49.922;7.966;2024-03-23T03:21:35;13.33;;;7.57;;
70132;SDS011;57495;49.922;7.966;2024-03-23T03:23:37;12.30;;;7.20;;
70132;SDS011;57495;49.922;7.966;2024-03-23T03:25:38;11.35;;;6.68;;
70132;SDS011;57495;49.922;7.966;2024-03-23T03:27:41;12.93;;;7.73;;
70132;SDS011;57495;49.922;7.966;2024-03-23T03:29:41;14.20;;;8.10;;
70132;SDS011;57495;49.922;7.966;2024-03-23T03:31:43;14.27;;;8.63;;
70132;SDS011;57495;49.922;7.966;2024-03-23T03:33:43;15.10;;;8.17;;
70132;SDS011;57495;49.922;7.966;2024-03-23T03:35:45;14.57;;;8.15;;
70132;SDS011;57495;49.922;7.966;2024-03-23T03:37:46;13.63;;;7.50;;
70132;SDS011;57495;49.922;7.966;2024-03-23T03:39:47;13.30;;;7.35;;
70132;SDS011;57495;49.922;7.966;2024-03-23T03:41:47;15.80;;;8.15;;
70132;SDS011;57495;49.922;7.966;2024-03-23T03:43:50;12.43;;;7.55;;
70132;SDS011;57495;49.922;7.966;2024-03-23T03:45:51;12.07;;;7.03;;
70132;SDS011;57495;49.922;7.966;2024-03-23T03:47:52;11.32;;;5.90;;
70132;SDS011;57495;49.922;7.966;2024-03-23T03:49:53;8.55;;;3.80;;
70132;SDS011;57495;49.922;7.966;2024-03-23T03:51:54;6.73;;;2.77;;
70132;SDS011;57495;49.922;7.966;2024-03-23T03:53:55;5.47;;;1.75;;
70132;SDS011;57495;49.922;7.966;2024-03-23T03:55:56;5.60;;;1.27;;
70132;SDS011;57495;49.922;7.966;2024-03-23T03:57:57;2.90;;;0.73;;
70132;SDS011;57495;49.922;7.966;2024-03-23T03:59:59;3.23;;;0.97;;
70132;SDS011;57495;49.922;7.966;2024-03-23T04:02:00;2.95;;;0.70;;
70132;SDS011;57495;49.922;7.966;2024-03-23T04:04:01;2.80;;;0.77;;
70132;SDS011;57495;49.922;7.966;2024-03-23T04:06:02;4.63;;;1.10;;
70132;SDS011;57495;49.922;7.966;2024-03-23T04:08:03;2.95;;;0.95;;
70132;SDS011;57495;49.922;7.966;2024-03-23T04:10:06;3.30;;;1.17;;
70132;SDS011;57495;49.922;7.966;2024-03-23T04:12:08;3.65;;;1.00;;
70132;SDS011;57495;49.922;7.966;2024-03-23T04:14:10;4.13;;;1.42;;
70132;SDS011;57495;49.922;7.966;2024-03-23T04:16:11;3.27;;;0.97;;
70132;SDS011;57495;49.922;7.966;2024-03-23T04:18:13;4.60;;;1.20;;
70132;SDS011;57495;49.922;7.966;2024-03-23T04:20:14;4.28;;;1.10;;
70132;SDS011;57495;49.922;7.966;2024-03-23T04:22:16;3.35;;;1.13;;
70132;SDS011;57495;49.922;7.966;2024-03-23T04:24:17;2.90;;;0.80;;
70132;SDS011;57495;49.922;7.966;2024-03-23T04:26:20;3.20;;;1.27;;
70132;SDS011;57495;49.922;7.966;2024-03-23T04:28:20;3.57;;;0.90;;
70132;SDS011;57495;49.922;7.966;2024-03-23T04:30:22;3.90;;;0.90;;
70132;SDS011;57495;49.922;7.966;2024-03-23T04:32:26;3.00;;;0.70;;
70132;SDS011;57495;49.922;7.966;2024-03-23T04:34:28;3.45;;;0.70;;
70132;SDS011;57495;49.922;7.966;2024-03-23T04:36:28;2.57;;;0.70;;
70132;SDS011;57495;49.922;7.966;2024-03-23T04:38:28;2.50;;;0.45;;
70132;SDS011;57495;49.922;7.966;2024-03-23T04:40:30;2.33;;;0.57;;
70132;SDS011;57495;49.922;7.966;2024-03-23T04:42:30;3.40;;;0.93;;
70132;SDS011;57495;49.922;7.966;2024-03-23T04:44:32;2.38;;;0.60;;
70132;SDS011;57495;49.922;7.966;2024-03-23T04:46:32;3.00;;;0.43;;
70132;SDS011;57495;49.922;7.966;2024-03-23T04:48:35;2.92;;;0.70;;
70132;SDS011;57495;49.922;7.966;2024-03-23T04:50:36;3.00;;;0.68;;
70132;SDS011;57495;49.922;7.966;2024-03-23T04:52:37;2.60;;;0.50;;
70132;SDS011;57495;49.922;7.966;2024-03-23T04:54:39;3.08;;;0.68;;
70132;SDS011;57495;49.922;7.966;2024-03-23T04:56:40;2.63;;;0.50;;
70132;SDS011;57495;49.922;7.966;2024-03-23T04:58:42;2.35;;;0.60;;
70132;SDS011;57495;49.922;7.966;2024-03-23T05:00:42;3.70;;;0.55;;
70132;SDS011;57495;49.922;7.966;2024-03-23T05:02:44;3.35;;;0.63;;
70132;SDS011;57495;49.922;7.966;2024-03-23T05:04:46;2.60;;;0.50;;
70132;SDS011;57495;49.922;7.966;2024-03-23T05:06:48;2.47;;;0.38;;
70132;SDS011;57495;49.922;7.966;2024-03-23T05:08:48;2.53;;;0.63;;
70132;SDS011;57495;49.922;7.966;2024-03-23T05:10:49;3.22;;;0.38;;
70132;SDS011;57495;49.922;7.966;2024-03-23T05:12:50;2.77;;;0.50;;
70132;SDS011;57495;49.922;7.966;2024-03-23T05:14:51;3.03;;;0.57;;
70132;SDS011;57495;49.922;7.966;2024-03-23T05:16:52;3.90;;;1.13;;
70132;SDS011;57495;49.922;7.966;2024-03-23T05:18:54;3.00;;;0.50;;
70132;SDS011;57495;49.922;7.966;2024-03-23T05:20:57;2.50;;;0.63;;
70132;SDS011;57495;49.922;7.966;2024-03-23T05:22:58;2.15;;;0.30;;
70132;SDS011;57495;49.922;7.966;2024-03-23T05:24:59;2.33;;;0.60;;
70132;SDS011;57495;49.922;7.966;2024-03-23T05:27:00;3.03;;;0.57;;
70132;SDS011;57495;49.922;7.966;2024-03-23T05:29:00;2.77;;;0.50;;
70132;SDS011;57495;49.922;7.966;2024-03-23T05:31:02;2.30;;;0.30;;
70132;SDS011;57495;49.922;7.966;2024-03-23T05:33:03;1.90;;;0.40;;
70132;SDS011;57495;49.922;7.966;2024-03-23T05:35:06;1.83;;;0.20;;
70132;SDS011;57495;49.922;7.966;2024-03-23T05:37:08;1.63;;;0.20;;
70132;SDS011;57495;49.922;7.966;2024-03-23T05:39:10;2.00;;;0.25;;
70132;SDS011;57495;49.922;7.966;2024-03-23T05:41:10;1.47;;;0.17;;
70132;SDS011;57495;49.922;7.966;2024-03-23T05:43:12;1.33;;;0.10;;
70132;SDS011;57495;49.922;7.966;2024-03-23T05:45:12;1.10;;;0.17;;
70132;SDS011;57495;49.922;7.966;2024-03-23T05:47:14;0.90;;;0.15;;
70132;SDS011;57495;49.922;7.966;2024-03-23T05:49:15;1.08;;;0.10;;
70132;SDS011;57495;49.922;7.966;2024-03-23T05:51:17;1.88;;;0.10;;
70132;SDS011;57495;49.922;7.966;2024-03-23T05:53:19;2.43;;;0.20;;
70132;SDS011;57495;49.922;7.966;2024-03-23T05:55:20;1.10;;;0.15;;
70132;SDS011;57495;49.922;7.966;2024-03-23T05:57:22;1.73;;;0.10;;
70132;SDS011;57495;49.922;7.966;2024-03-23T05:59:22;1.90;;;0.20;;
70132;SDS011;57495;49.922;7.966;2024-03-23T06:01:23;1.02;;;0.20;;
70132;SDS011;57495;49.922;7.966;2024-03-23T06:03:24;1.17;;;0.10;;
70132;SDS011;57495;49.922;7.966;2024-03-23T06:05:25;1.08;;;0.20;;
70132;SDS011;57495;49.922;7.966;2024-03-23T06:07:26;1.23;;;0.20;;
70132;SDS011;57495;49.922;7.966;2024-03-23T06:09:29;1.45;;;0.20;;
70132;SDS011;57495;49.922;7.966;2024-03-23T06:11:31;1.70;;;0.30;;
70132;SDS011;57495;49.922;7.966;2024-03-23T06:13:32;1.83;;;0.20;;
70132;SDS011;57495;49.922;7.966;2024-03-23T06:15:33;1.67;;;0.20;;
70132;SDS011;57495;49.922;7.966;2024-03-23T06:17:37;2.47;;;0.50;;
70132;SDS011;57495;49.922;7.966;2024-03-23T06:19:38;2.22;;;0.40;;
70132;SDS011;57495;49.922;7.966;2024-03-23T06:21:42;3.25;;;0.40;;
70132;SDS011;57495;49.922;7.966;2024-03-23T06:23:44;2.65;;;0.50;;
70132;SDS011;57495;49.922;7.966;2024-03-23T06:25:52;2.28;;;0.47;;
70132;SDS011;57495;49.922;7.966;2024-03-23T06:27:52;2.85;;;0.80;;
70132;SDS011;57495;49.922;7.966;2024-03-23T06:29:54;3.10;;;0.57;;
70132;SDS011;57495;49.922;7.966;2024-03-23T06:31:54;3.93;;;0.70;;
70132;SDS011;57495;49.922;7.966;2024-03-23T06:33:56;3.42;;;0.55;;
70132;SDS011;57495;49.922;7.966;2024-03-23T06:35:56;4.53;;;1.00;;
70132;SDS011;57495;49.922;7.966;2024-03-23T06:37:57;4.45;;;1.15;;
70132;SDS011;57495;49.922;7.966;2024-03-23T06:39:58;4.73;;;2.03;;
70132;SDS011;57495;49.922;7.966;2024-03-23T06:42:01;3.88;;;1.55;;
70132;SDS011;57495;49.922;7.966;2024-03-23T06:44:01;3.65;;;1.20;;
70132;SDS011;57495;49.922;7.966;2024-03-23T06:46:03;4.85;;;1.90;;
70132;SDS011;57495;49.922;7.966;2024-03-23T06:48:04;5.00;;;1.40;;
70132;SDS011;57495;49.922;7.966;2024-03-23T06:50:08;4.53;;;1.85;;
70132;SDS011;57495;49.922;7.966;2024-03-23T06:52:10;4.93;;;1.55;;
70132;SDS011;57495;49.922;7.966;2024-03-23T06:54:11;5.82;;;1.60;;
70132;SDS011;57495;49.922;7.966;2024-03-23T06:56:12;5.35;;;1.80;;
70132;SDS011;57495;49.922;7.966;2024-03-23T06:58:15;5.30;;;1.93;;
70132;SDS011;57495;49.922;7.966;2024-03-23T07:00:15;5.93;;;2.13;;
70132;SDS011;57495;49.922;7.966;2024-03-23T07:02:17;7.65;;;2.30;;
70132;SDS011;57495;49.922;7.966;2024-03-23T07:04:17;5.93;;;1.87;;
70132;SDS011;57495;49.922;7.966;2024-03-23T07:06:19;6.57;;;2.03;;
70132;SDS011;57495;49.922;7.966;2024-03-23T07:08:20;6.37;;;2.07;;
70132;SDS011;57495;49.922;7.966;2024-03-23T07:10:22;4.13;;;1.75;;
70132;SDS011;57495;49.922;7.966;2024-03-23T07:12:22;5.80;;;2.20;;
70132;SDS011;57495;49.922;7.966;2024-03-23T07:14:25;5.72;;;1.85;;
70132;SDS011;57495;49.922;7.966;2024-03-23T07:16:26;4.45;;;1.60;;
70132;SDS011;57495;49.922;7.966;2024-03-23T07:18:27;5.30;;;1.60;;
70132;SDS011;57495;49.922;7.966;2024-03-23T07:20:28;4.03;;;1.30;;
70132;SDS011;57495;49.922;7.966;2024-03-23T07:22:31;5.38;;;1.92;;
70132;SDS011;57495;49.922;7.966;2024-03-23T07:24:31;4.43;;;1.70;;
70132;SDS011;57495;49.922;7.966;2024-03-23T07:26:33;6.22;;;1.63;;
70132;SDS011;57495;49.922;7.966;2024-03-23T07:28:33;7.85;;;1.65;;
70132;SDS011;57495;49.922;7.966;2024-03-23T07:30:37;6.40;;;1.60;;
70132;SDS011;57495;49.922;7.966;2024-03-23T07:32:38;7.53;;;1.20;;
70132;SDS011;57495;49.922;7.966;2024-03-23T07:34:39;5.43;;;1.30;;
70132;SDS011;57495;49.922;7.966;2024-03-23T07:36:40;7.77;;;1.87;;
70132;SDS011;57495;49.922;7.966;2024-03-23T07:38:41;7.60;;;1.88;;
70132;SDS011;57495;49.922;7.966;2024-03-23T07:40:42;9.80;;;2.20;;
70132;SDS011;57495;49.922;7.966;2024-03-23T07:42:43;7.40;;;2.17;;
70132;SDS011;57495;49.922;7.966;2024-03-23T07:44:44;8.53;;;3.00;;
70132;SDS011;57495;49.922;7.966;2024-03-23T07:46:47;7.30;;;2.05;;
70132;SDS011;57495;49.922;7.966;2024-03-23T07:48:48;7.65;;;2.17;;
70132;SDS011;57495;49.922;7.966;2024-03-23T07:50:56;5.93;;;2.10;;
70132;SDS011;57495;49.922;7.966;2024-03-23T07:52:58;6.60;;;1.35;;
70132;SDS011;57495;49.922;7.966;2024-03-23T07:54:59;4.78;;;1.60;;
70132;SDS011;57495;49.922;7.966;2024-03-23T07:57:00;7.63;;;2.10;;
70132;SDS011;57495;49.922;7.966;2024-03-23T07:59:01;5.72;;;1.52;;
70132;SDS011;57495;49.922;7.966;2024-03-23T08:01:03;6.55;;;1.75;;
70132;SDS011;57495;49.922;7.966;2024-03-23T08:03:06;6.00;;;1.70;;
70132;SDS011;57495;49.922;7.966;2024-03-23T08:05:08;9.27;;;1.92;;
70132;SDS011;57495;49.922;7.966;2024-03-23T08:07:08;7.07;;;1.98;;
70132;SDS011;57495;49.922;7.966;2024-03-23T08:09:10;7.72;;;1.98;;
70132;SDS011;57495;49.922;7.966;2024-03-23T08:11:10;7.73;;;1.63;;
70132;SDS011;57495;49.922;7.966;2024-03-23T08:13:12;8.65;;;2.20;;
70132;SDS011;57495;49.922;7.966;2024-03-23T08:15:13;9.33;;;2.47;;
70132;SDS011;57495;49.922;7.966;2024-03-23T08:17:13;10.23;;;2.10;;
70132;SDS011;57495;49.922;7.966;2024-03-23T08:19:16;6.18;;;1.58;;
70132;SDS011;57495;49.922;7.966;2024-03-23T08:21:16;7.20;;;2.05;;
70132;SDS011;57495;49.922;7.966;2024-03-23T08:23:18;9.60;;;2.30;;
70132;SDS011;57495;49.922;7.966;2024-03-23T08:25:18;11.97;;;2.30;;
70132;SDS011;57495;49.922;7.966;2024-03-23T08:27:20;10.27;;;2.45;;
70132;SDS011;57495;49.922;7.966;2024-03-23T08:29:20;6.77;;;2.00;;
70132;SDS011;57495;49.922;7.966;2024-03-23T08:31:22;8.90;;;1.88;;
70132;SDS011;57495;49.922;7.966;2024-03-23T08:33:23;9.87;;;1.80;;
70132;SDS011;57495;49.922;7.966;2024-03-23T08:35:26;10.73;;;2.20;;
70132;SDS011;57495;49.922;7.966;2024-03-23T08:37:26;7.82;;;1.55;;
70132;SDS011;57495;49.922;7.966;2024-03-23T08:39:27;6.05;;;1.85;;
70132;SDS011;57495;49.922;7.966;2024-03-23T08:41:28;8.50;;;2.10;;
70132;SDS011;57495;49.922;7.966;2024-03-23T08:43:30;7.43;;;1.95;;
70132;SDS011;57495;49.922;7.966;2024-03-23T08:45:35;10.00;;;2.00;;
70132;SDS011;57495;49.922;7.966;2024-03-23T08:47:37;6.20;;;1.48;;
70132;SDS011;57495;49.922;7.966;2024-03-23T08:49:37;9.03;;;1.73;;
70132;SDS011;57495;49.922;7.966;2024-03-23T08:51:40;4.75;;;1.20;;
70132;SDS011;57495;49.922;7.966;2024-03-23T08:53:40;6.95;;;1.48;;
70132;SDS011;57495;49.922;7.966;2024-03-23T08:55:42;4.28;;;1.00;;
70132;SDS011;57495;49.922;7.966;2024-03-23T08:57:53;9.85;;;1.25;;
70132;SDS011;57495;49.922;7.966;2024-03-23T08:59:54;6.00;;;0.90;;
70132;SDS011;57495;49.922;7.966;2024-03-23T09:01:55;7.07;;;1.17;;
70132;SDS011;57495;49.922;7.966;2024-03-23T09:03:57;8.37;;;1.33;;
70132;SDS011;57495;49.922;7.966;2024-03-23T09:05:57;8.57;;;1.60;;
70132;SDS011;57495;49.922;7.966;2024-03-23T09:08:00;6.80;;;1.43;;
70132;SDS011;57495;49.922;7.966;2024-03-23T09:10:01;4.85;;;1.05;;
70132;SDS011;57495;49.922;7.966;2024-03-23T09:12:02;4.43;;;1.00;;
70132;SDS011;57495;49.922;7.966;2024-03-23T09:14:03;6.57;;;1.23;;
70132;SDS011;57495;49.922;7.966;2024-03-23T09:16:04;8.53;;;1.40;;
70132;SDS011;57495;49.922;7.966;2024-03-23T09:18:06;7.68;;;1.30;;
70132;SDS011;57495;49.922;7.966;2024-03-23T09:20:07;9.00;;;1.83;;
70132;SDS011;57495;49.922;7.966;2024-03-23T09:22:09;8.77;;;1.92;;
70132;SDS011;57495;49.922;7.966;2024-03-23T09:24:11;6.53;;;1.30;;
70132;SDS011;57495;49.922;7.966;2024-03-23T09:26:12;9.10;;;2.22;;
70132;SDS011;57495;49.922;7.966;2024-03-23T09:28:12;8.80;;;1.53;;
70132;SDS011;57495;49.922;7.966;2024-03-23T09:30:14;5.35;;;1.27;;
70132;SDS011;57495;49.922;7.966;2024-03-23T09:32:15;9.07;;;1.67;;
70132;SDS011;57495;49.922;7.966;2024-03-23T09:34:16;8.82;;;2.60;;
70132;SDS011;57495;49.922;7.966;2024-03-23T09:36:16;6.72;;;1.40;;
70132;SDS011;57495;49.922;7.966;2024-03-23T09:38:18;7.82;;;1.30;;
70132;SDS011;57495;49.922;7.966;2024-03-23T09:40:20;8.57;;;1.60;;
70132;SDS011;57495;49.922;7.966;2024-03-23T09:42:22;9.65;;;1.60;;
70132;SDS011;57495;49.922;7.966;2024-03-23T09:44:23;7.72;;;1.60;;
70132;SDS011;57495;49.922;7.966;2024-03-23T09:46:26;13.93;;;1.83;;
70132;SDS011;57495;49.922;7.966;2024-03-23T09:48:26;10.43;;;2.42;;
70132;SDS011;57495;49.922;7.966;2024-03-23T09:50:28;8.90;;;1.45;;
70132;SDS011;57495;49.922;7.966;2024-03-23T09:52:29;6.30;;;0.90;;
70132;SDS011;57495;49.922;7.966;2024-03-23T09:54:30;8.68;;;1.48;;
70132;SDS011;57495;49.922;7.966;2024-03-23T09:56:33;6.47;;;1.35;;
70132;SDS011;57495;49.922;7.966;2024-03-23T09:58:35;6.60;;;1.75;;
70132;SDS011;57495;49.922;7.966;2024-03-23T10:00:35;9.23;;;1.70;;
70132;SDS011;57495;49.922;7.966;2024-03-23T10:02:36;6.22;;;1.75;;
70132;SDS011;57495;49.922;7.966;2024-03-23T10:04:37;11.43;;;1.37;;
70132;SDS011;57495;49.922;7.966;2024-03-23T10:06:39;7.88;;;0.80;;
70132;SDS011;57495;49.922;7.966;2024-03-23T10:08:39;4.27;;;0.77;;
70132;SDS011;57495;49.922;7.966;2024-03-23T10:10:44;5.88;;;0.90;;
70132;SDS011;57495;49.922;7.966;2024-03-23T10:12:47;4.43;;;1.17;;
70132;SDS011;57495;49.922;7.966;2024-03-23T10:14:50;5.75;;;0.88;;
70132;SDS011;57495;49.922;7.966;2024-03-23T10:16:51;4.80;;;0.80;;
70132;SDS011;57495;49.922;7.966;2024-03-23T10:18:52;12.35;;;3.45;;
70132;SDS011;57495;49.922;7.966;2024-03-23T10:21:06;8.50;;;2.30;;
70132;SDS011;57495;49.922;7.966;2024-03-23T10:23:15;9.98;;;3.78;;
70132;SDS011;57495;49.922;7.966;2024-03-23T10:25:16;7.68;;;1.20;;
70132;SDS011;57495;49.922;7.966;2024-03-23T10:27:17;5.32;;;0.73;;
70132;SDS011;57495;49.922;7.966;2024-03-23T10:29:20;5.22;;;1.60;;
70132;SDS011;57495;49.922;7.966;2024-03-23T10:31:22;6.77;;;1.10;;
70132;SDS011;57495;49.922;7.966;2024-03-23T10:33:25;6.07;;;1.20;;
70132;SDS011;57495;49.922;7.966;2024-03-23T10:35:26;7.35;;;1.17;;
70132;SDS011;57495;49.922;7.966;2024-03-23T10:37:28;6.50;;;1.40;;
70132;SDS011;57495;49.922;7.966;2024-03-23T10:39:30;6.40;;;1.10;;
70132;SDS011;57495;49.922;7.966;2024-03-23T10:41:33;4.17;;;0.50;;
70132;SDS011;57495;49.922;7.966;2024-03-23T10:43:35;5.20;;;0.40;;
70132;SDS011;57495;49.922;7.966;2024-03-23T10:45:40;4.32;;;0.65;;
70132;SDS011;57495;49.922;7.966;2024-03-23T10:47:42;3.63;;;0.30;;
70132;SDS011;57495;49.922;7.966;2024-03-23T10:49:42;5.50;;;1.00;;
70132;SDS011;57495;49.922;7.966;2024-03-23T10:51:44;8.15;;;1.15;;
70132;SDS011;57495;49.922;7.966;2024-03-23T10:53:44;4.07;;;0.70;;
70132;SDS011;57495;49.922;7.966;2024-03-23T10:55:47;7.10;;;0.90;;
70132;SDS011;57495;49.922;7.966;2024-03-23T10:57:48;5.70;;;0.80;;
70132;SDS011;57495;49.922;7.966;2024-03-23T10:59:55;5.95;;;1.08;;
70132;SDS011;57495;49.922;7.966;2024-03-23T11:01:58;5.18;;;1.00;;
70132;SDS011;57495;49.922;7.966;2024-03-23T11:04:02;6.63;;;1.17;;
70132;SDS011;57495;49.922;7.966;2024-03-23T11:06:03;7.37;;;1.47;;
70132;SDS011;57495;49.922;7.966;2024-03-23T11:08:06;5.72;;;1.30;;
70132;SDS011;57495;49.922;7.966;2024-03-23T11:10:23;8.77;;;1.30;;
70132;SDS011;57495;49.922;7.966;2024-03-23T11:12:27;4.30;;;0.77;;
70132;SDS011;57495;49.922;7.966;2024-03-23T11:14:30;5.53;;;1.05;;
70132;SDS011;57495;49.922;7.966;2024-03-23T11:16:33;7.45;;;1.23;;
70132;SDS011;57495;49.922;7.966;2024-03-23T11:18:37;5.75;;;1.50;;
70132;SDS011;57495;49.922;7.966;2024-03-23T11:20:38;5.22;;;1.48;;
70132;SDS011;57495;49.922;7.966;2024-03-23T11:22:42;5.73;;;1.10;;
70132;SDS011;57495;49.922;7.966;2024-03-23T11:24:49;6.05;;;1.10;;
70132;SDS011;57495;49.922;7.966;2024-03-23T11:26:50;5.75;;;1.65;;
70132;SDS011;57495;49.922;7.966;2024-03-23T11:28:55;5.53;;;1.48;;
70132;SDS011;57495;49.922;7.966;2024-03-23T11:31:09;7.22;;;1.35;;
70132;SDS011;57495;49.922;7.966;2024-03-23T11:33:11;6.22;;;0.90;;
70132;SDS011;57495;49.922;7.966;2024-03-23T11:35:26;5.88;;;1.38;;
70132;SDS011;57495;49.922;7.966;2024-03-23T11:37:29;6.22;;;1.65;;
70132;SDS011;57495;49.922;7.966;2024-03-23T11:39:29;7.70;;;1.77;;
70132;SDS011;57495;49.922;7.966;2024-03-23T11:41:30;8.27;;;1.80;;
70132;SDS011;57495;49.922;7.966;2024-03-23T11:43:31;8.27;;;1.67;;
70132;SDS011;57495;49.922;7.966;2024-03-23T11:45:35;6.67;;;1.50;;
70132;SDS011;57495;49.922;7.966;2024-03-23T11:47:37;8.63;;;1.80;;
70132;SDS011;57495;49.922;7.966;2024-03-23T11:49:37;6.77;;;1.20;;
70132;SDS011;57495;49.922;7.966;2024-03-23T11:51:42;7.18;;;1.67;;
70132;SDS011;57495;49.922;7.966;2024-03-23T11:53:43;5.95;;;1.20;;
70132;SDS011;57495;49.922;7.966;2024-03-23T11:55:45;4.13;;;1.50;;
70132;SDS011;57495;49.922;7.966;2024-03-23T11:57:47;6.55;;;1.20;;
70132;SDS011;57495;49.922;7.966;2024-03-23T11:59:49;5.40;;;1.33;;
70132;SDS011;57495;49.922;7.966;2024-03-23T12:01:49;5.80;;;1.00;;
70132;SDS011;57495;49.922;7.966;2024-03-23T12:03:51;5.95;;;1.48;;
70132;SDS011;57495;49.922;7.966;2024-03-23T12:05:52;5.50;;;1.15;;
70132;SDS011;57495;49.922;7.966;2024-03-23T12:07:56;9.07;;;1.00;;
70132;SDS011;57495;49.922;7.966;2024-03-23T12:10:15;4.72;;;0.85;;
70132;SDS011;57495;49.922;7.966;2024-03-23T12:12:20;5.95;;;1.60;;
70132;SDS011;57495;49.922;7.966;2024-03-23T12:14:21;7.32;;;1.70;;
70132;SDS011;57495;49.922;7.966;2024-03-23T12:16:24;8.47;;;1.37;;
70132;SDS011;57495;49.922;7.966;2024-03-23T12:18:27;4.38;;;0.80;;
70132;SDS011;57495;49.922;7.966;2024-03-23T12:20:28;4.28;;;0.60;;
70132;SDS011;57495;49.922;7.966;2024-03-23T12:22:29;5.90;;;0.97;;
70132;SDS011;57495;49.922;7.966;2024-03-23T12:24:32;6.60;;;1.00;;
70132;SDS011;57495;49.922;7.966;2024-03-23T12:26:34;4.55;;;0.75;;
70132;SDS011;57495;49.922;7.966;2024-03-23T12:28:37;1.83;;;0.40;;
70132;SDS011;57495;49.922;7.966;2024-03-23T12:30:38;2.70;;;0.17;;
70132;SDS011;57495;49.922;7.966;2024-03-23T12:32:41;2.47;;;0.30;;
70132;SDS011;57495;49.922;7.966;2024-03-23T12:34:41;1.50;;;0.20;;
70132;SDS011;57495;49.922;7.966;2024-03-23T12:36:43;2.35;;;0.20;;
70132;SDS011;57495;49.922;7.966;2024-03-23T12:38:44;1.25;;;0.10;;
70132;SDS011;57495;49.922;7.966;2024-03-23T12:40:47;2.60;;;0.20;;
70132;SDS011;57495;49.922;7.966;2024-03-23T12:42:48;1.33;;;0.20;;
70132;SDS011;57495;49.922;7.966;2024-03-23T12:44:49;2.53;;;0.20;;
70132;SDS011;57495;49.922;7.966;2024-03-23T12:46:49;3.20;;;0.30;;
70132;SDS011;57495;49.922;7.966;2024-03-23T12:48:51;2.90;;;0.30;;
70132;SDS011;57495;49.922;7.966;2024-03-23T12:50:54;2.22;;;0.30;;
70132;SDS011;57495;49.922;7.966;2024-03-23T12:52:55;2.05;;;0.17;;
70132;SDS011;57495;49.922;7.966;2024-03-23T12:54:56;2.20;;;0.20;;
70132;SDS011;57495;49.922;7.966;2024-03-23T12:56:58;3.83;;;0.35;;
70132;SDS011;57495;49.922;7.966;2024-03-23T12:58:59;1.60;;;0.28;;
70132;SDS011;57495;49.922;7.966;2024-03-23T13:01:00;1.67;;;0.20;;
70132;SDS011;57495;49.922;7.966;2024-03-23T13:03:01;1.00;;;0.10;;